Time;durP1;ratioP1;P1;durP2;ratioP2;P2;SDS_P1;SDS_P2;PMS_P1;PMS_P2;Temp;Humidity;BMP_temperature;BMP_pressure;BME280_temperature;BME280_humidity;BME280_pressure;Samples;Min_cycle;Max_cycle;Signal;HPM_P1;HPM_P2
2022/01/09 00:02:11;;;;;;;;;2.50;1.50;;;;;7.36;70.08;99676.34;5100161;27;45302;-56
2022/01/09 00:04:36;;;;;;;;;1.25;0.00;;;;;7.32;69.85;99664.09;5099957;27;45291;-57
2022/01/09 00:07:02;;;;;;;;;5.00;1.00;;;;;7.33;70.63;99668.47;5099640;27;45389;-56
2022/01/09 00:09:28;;;;;;;;;3.00;2.00;;;;;7.30;70.36;99683.78;5099883;27;45402;-56
2022/01/09 00:11:54;;;;;;;;;1.00;1.00;;;;;7.34;70.19;99690.69;5099930;27;45373;-57
2022/01/09 00:14:19;;;;;;;;;5.50;1.50;;;;;7.36;70.71;99700.34;5099484;27;45961;-56
2022/01/09 00:16:44;;;;;;;;;3.00;1.50;;;;;7.37;70.56;99702.06;5099614;27;47245;-55
2022/01/09 00:19:10;;;;;;;;;2.00;1.00;;;;;7.38;70.13;99709.13;5099730;27;45310;-54
2022/01/09 00:21:35;;;;;;;;;1.75;1.00;;;;;7.37;70.68;99711.88;5099682;27;45642;-56
2022/01/09 00:24:01;;;;;;;;;6.00;1.75;;;;;7.24;70.33;99706.25;5099347;27;45444;-55
2022/01/09 00:26:26;;;;;;;;;8.25;1.00;;;;;7.25;70.72;99715.13;5099140;27;46110;-55
2022/01/09 00:28:51;;;;;;;;;2.75;1.00;;;;;7.19;70.87;99727.81;5099317;27;45462;-54
2022/01/09 05:32:00;;;;;;;;;2.25;0.00;;;;;6.47;73.59;100095.06;3285331;26;46163;-75
2022/01/09 05:34:25;;;;;;;;;3.00;0.00;;;;;6.42;74.12;100090.88;5016456;28;45338;-75
2022/01/09 05:36:51;;;;;;;;;2.00;1.00;;;;;6.42;74.23;100094.41;5016982;28;45356;-75
2022/01/09 05:39:16;;;;;;;;;2.75;0.00;;;;;6.35;73.79;100076.06;5015528;28;45362;-75
2022/01/09 05:41:44;;;;;;;;;6.00;0.25;;;;;6.26;74.36;100073.78;5016711;28;45497;-75
2022/01/09 05:44:09;;;;;;;;;0.00;0.00;;;;;6.24;73.71;100083.59;5016199;28;46134;-74
2022/01/09 05:46:35;;;;;;;;;3.00;0.00;;;;;6.26;74.46;100085.28;5016635;28;45454;-74
2022/01/09 05:49:00;;;;;;;;;0.50;0.00;;;;;6.10;74.10;100077.94;5016715;28;45505;-76
2022/01/09 05:51:26;;;;;;;;;0.00;0.00;;;;;6.22;74.47;100088.09;5016590;28;45268;-75
2022/01/09 05:53:51;;;;;;;;;0.25;0.00;;;;;6.21;74.45;100091.72;5015581;28;45515;-74
2022/01/09 05:56:16;;;;;;;;;0.50;0.00;;;;;6.15;73.76;100103.44;5017104;28;45245;-76
2022/01/09 05:58:42;;;;;;;;;1.00;0.00;;;;;5.99;74.63;100076.56;5016423;28;45241;-76
2022/01/09 06:01:07;;;;;;;;;1.00;0.00;;;;;6.05;74.38;100094.94;5016616;28;45413;-76
2022/01/09 06:03:34;;;;;;;;;1.00;0.00;;;;;6.13;74.40;100089.31;5016390;28;45870;-75
2022/01/09 06:05:59;;;;;;;;;3.75;0.00;;;;;6.23;73.81;100112.00;5016598;28;45467;-75
2022/01/09 06:08:25;;;;;;;;;2.00;0.00;;;;;6.21;73.91;100100.53;5016508;28;45244;-75
2022/01/09 06:10:51;;;;;;;;;2.25;1.00;;;;;6.21;73.48;100108.53;5016430;28;45656;-75
2022/01/09 06:13:16;;;;;;;;;0.25;0.25;;;;;6.19;74.28;100110.41;5015901;28;45726;-74
2022/01/09 06:15:41;;;;;;;;;2.75;0.25;;;;;6.25;74.49;100118.16;5016463;28;45423;-75
2022/01/09 06:18:07;;;;;;;;;1.25;0.50;;;;;6.32;74.33;100132.97;5016350;28;45367;-74
2022/01/09 06:20:32;;;;;;;;;1.50;1.00;;;;;6.22;73.60;100104.94;5016518;28;46080;-76
2022/01/09 06:22:58;;;;;;;;;1.75;0.50;;;;;6.37;73.47;100131.00;5016333;28;45319;-76
2022/01/09 06:25:23;;;;;;;;;1.00;0.00;;;;;6.37;73.62;100143.44;5015895;28;45340;-75
2022/01/09 06:27:48;;;;;;;;;1.00;0.00;;;;;6.38;73.39;100139.88;5014634;28;45260;-75
2022/01/09 06:30:14;;;;;;;;;0.50;0.00;;;;;6.37;73.26;100146.09;5016066;28;45355;-75
2022/01/09 06:32:40;;;;;;;;;1.00;0.00;;;;;6.30;73.71;100148.09;5015803;28;45490;-75
2022/01/09 06:35:06;;;;;;;;;0.00;0.00;;;;;6.29;73.65;100134.88;5016056;28;45328;-74
2022/01/09 06:37:32;;;;;;;;;1.00;0.00;;;;;6.08;72.60;100099.28;5015639;28;45288;-74
2022/01/09 06:39:58;;;;;;;;;3.00;0.00;;;;;6.30;73.56;100137.47;5015578;28;45572;-77
2022/01/09 06:42:23;;;;;;;;;2.00;0.00;;;;;6.26;73.58;100137.66;5015730;28;46161;-75
2022/01/09 06:44:48;;;;;;;;;1.00;1.00;;;;;6.20;73.82;100162.72;5015356;28;45461;-75
2022/01/09 06:47:14;;;;;;;;;0.00;0.00;;;;;6.17;74.45;100156.63;5015377;28;45295;-76
2022/01/09 06:49:39;;;;;;;;;3.00;0.00;;;;;6.13;74.60;100139.03;5015759;28;45387;-74
2022/01/09 06:52:05;;;;;;;;;2.00;0.00;;;;;6.30;74.14;100155.22;5015537;28;45516;-74
2022/01/09 06:54:30;;;;;;;;;0.00;0.00;;;;;6.25;74.44;100136.78;5014622;28;45460;-75
2022/01/09 06:56:56;;;;;;;;;4.50;0.00;;;;;6.22;73.80;100126.25;5015164;28;45479;-76
2022/01/09 06:59:21;;;;;;;;;0.00;0.00;;;;;6.32;74.39;100143.59;5015362;28;45374;-75
2022/01/09 07:01:47;;;;;;;;;0.75;0.00;;;;;6.39;74.04;100137.13;5013669;28;48103;-75
2022/01/09 07:04:12;;;;;;;;;1.00;0.00;;;;;6.41;74.36;100147.72;5015216;28;45316;-75
2022/01/09 07:06:38;;;;;;;;;3.00;0.00;;;;;6.47;73.50;100147.47;5013909;28;45172;-76
2022/01/09 07:09:04;;;;;;;;;1.00;0.00;;;;;6.47;73.50;100158.13;5015036;28;45217;-74
2022/01/09 07:11:29;;;;;;;;;0.00;0.00;;;;;6.47;75.02;100155.44;5016358;28;45256;-76
2022/01/09 07:13:55;;;;;;;;;0.00;0.00;;;;;6.52;74.49;100160.63;5015888;28;45283;-76
2022/01/09 07:16:21;;;;;;;;;0.00;0.00;;;;;6.52;74.77;100156.16;5014879;28;45485;-74
2022/01/09 07:18:46;;;;;;;;;1.00;0.00;;;;;6.51;74.92;100150.88;5015666;28;45248;-75
2022/01/09 07:21:12;;;;;;;;;1.25;0.00;;;;;6.43;75.60;100137.88;5014837;28;45483;-76
2022/01/09 07:23:37;;;;;;;;;0.00;0.00;;;;;6.53;75.60;100167.69;5014750;28;45402;-74
2022/01/09 07:26:03;;;;;;;;;2.00;1.00;;;;;6.49;74.22;100155.41;5015391;28;45434;-75
2022/01/09 07:28:28;;;;;;;;;0.00;0.00;;;;;6.45;74.87;100154.66;5013770;28;46943;-75
2022/01/09 07:30:53;;;;;;;;;0.00;0.00;;;;;6.47;75.27;100156.31;5015095;28;45478;-75
2022/01/09 07:33:19;;;;;;;;;1.00;0.00;;;;;6.43;74.96;100138.75;5015105;28;45430;-76
2022/01/09 07:35:44;;;;;;;;;0.00;0.00;;;;;6.52;75.25;100144.63;5014866;28;45466;-75
2022/01/09 07:38:11;;;;;;;;;1.75;0.00;;;;;6.58;75.54;100149.72;5015182;28;45298;-74
2022/01/09 07:40:37;;;;;;;;;0.50;0.00;;;;;6.65;74.95;100141.44;5015143;28;45391;-74
2022/01/09 07:43:02;;;;;;;;;1.00;0.00;;;;;6.58;74.93;100128.41;5014763;28;45526;-74
2022/01/09 07:45:29;;;;;;;;;2.75;0.00;;;;;6.74;74.97;100137.53;5015235;28;45384;-76
2022/01/09 07:47:58;;;;;;;;;1.50;0.00;;;;;6.79;75.28;100156.88;5030379;28;45499;-74
2022/01/09 07:50:23;;;;;;;;;0.00;0.00;;;;;6.83;75.59;100175.34;5014118;28;45533;-75
2022/01/09 07:52:50;;;;;;;;;2.50;0.00;;;;;6.81;75.24;100158.53;5014176;28;45382;-75
2022/01/09 07:55:18;;;;;;;;;0.75;0.00;;;;;6.94;75.20;100190.91;5015011;28;45367;-76
2022/01/09 07:57:44;;;;;;;;;0.00;0.00;;;;;6.90;74.41;100186.59;5012580;28;45719;-74
2022/01/09 08:00:11;;;;;;;;;0.00;0.00;;;;;6.82;74.72;100196.69;5014274;28;45252;-75
2022/01/09 08:02:37;;;;;;;;;0.50;0.00;;;;;6.72;74.13;100184.69;5014862;28;45224;-75
2022/01/09 08:05:02;;;;;;;;;2.00;0.00;;;;;6.61;74.44;100168.25;5013987;28;45903;-76
2022/01/09 08:07:28;;;;;;;;;0.00;0.00;;;;;6.59;74.81;100160.31;5014482;28;45331;-74
2022/01/09 08:09:53;;;;;;;;;0.00;0.00;;;;;6.58;74.71;100163.03;5013645;28;46298;-76
2022/01/09 08:12:19;;;;;;;;;0.00;0.00;;;;;6.48;75.24;100149.19;5014156;28;45405;-74
2022/01/09 08:14:45;;;;;;;;;1.00;0.00;;;;;6.54;75.27;100149.00;5014007;28;45424;-74
2022/01/09 08:17:11;;;;;;;;;1.00;0.00;;;;;6.59;74.98;100154.13;5013820;28;45398;-75
2022/01/09 08:19:37;;;;;;;;;1.00;1.00;;;;;6.57;74.27;100163.97;5014150;28;45335;-75
2022/01/09 08:22:04;;;;;;;;;6.00;0.00;;;;;6.56;74.63;100157.75;5014278;28;45304;-75
2022/01/09 08:24:30;;;;;;;;;0.25;0.25;;;;;6.62;75.13;100172.66;5014401;28;45454;-73
2022/01/09 08:26:56;;;;;;;;;1.50;0.25;;;;;6.58;75.66;100166.56;5014426;28;45388;-75
2022/01/09 08:29:22;;;;;;;;;2.00;0.00;;;;;6.62;75.62;100162.00;5013873;28;45837;-76
2022/01/09 08:31:48;;;;;;;;;0.00;0.00;;;;;6.55;74.91;100165.84;5014009;28;45426;-74
2022/01/09 08:34:13;;;;;;;;;0.00;0.00;;;;;6.54;75.55;100169.44;5014390;28;45939;-75
2022/01/09 08:36:38;;;;;;;;;1.00;0.00;;;;;6.51;74.78;100177.50;5014254;28;45517;-76
2022/01/09 08:39:05;;;;;;;;;0.00;0.00;;;;;6.46;74.27;100172.38;5014718;28;46256;-75
2022/01/09 08:41:31;;;;;;;;;1.25;0.00;;;;;6.36;75.54;100160.34;5014855;28;45427;-78
2022/01/09 08:43:57;;;;;;;;;0.00;0.00;;;;;6.38;75.71;100158.50;5013290;28;45408;-76
2022/01/09 08:46:23;;;;;;;;;0.00;0.00;;;;;6.40;76.09;100148.63;5016369;28;45532;-76
2022/01/09 08:48:49;;;;;;;;;0.00;0.00;;;;;6.30;75.27;100142.78;5015247;28;46180;-76
2022/01/09 08:51:15;;;;;;;;;0.00;0.00;;;;;6.23;74.90;100149.28;5016512;28;45236;-77
2022/01/09 08:53:41;;;;;;;;;0.00;0.00;;;;;6.16;75.46;100145.09;5015366;28;45394;-78
2022/01/09 08:56:07;;;;;;;;;0.00;0.00;;;;;5.79;75.13;100092.34;5014840;28;45391;-78
2022/01/09 08:58:33;;;;;;;;;1.50;0.00;;;;;6.14;75.63;100154.94;5018274;28;45519;-75
2022/01/09 09:00:59;;;;;;;;;0.00;0.00;;;;;6.11;76.57;100152.41;5015396;28;45493;-76
2022/01/09 09:03:24;;;;;;;;;0.25;0.00;;;;;6.03;76.10;100141.19;5013060;28;45381;-74
2022/01/09 09:05:50;;;;;;;;;0.50;0.00;;;;;6.08;76.60;100144.53;5014249;28;45477;-74
2022/01/09 09:08:16;;;;;;;;;2.00;0.00;;;;;6.11;77.23;100151.53;5013908;28;45907;-78
2022/01/09 09:10:41;;;;;;;;;0.00;0.00;;;;;6.28;76.60;100173.06;5014392;28;45345;-76
2022/01/09 09:13:07;;;;;;;;;0.00;0.00;;;;;6.32;76.80;100177.34;5013853;28;45310;-77
2022/01/09 09:15:33;;;;;;;;;1.75;0.00;;;;;6.38;77.32;100172.66;5014325;28;45393;-76
2022/01/09 09:17:58;;;;;;;;;0.75;0.00;;;;;6.39;76.35;100163.75;5012431;28;47136;-73
2022/01/09 09:20:24;;;;;;;;;2.00;1.00;;;;;6.51;76.50;100180.19;5014185;28;45304;-76
2022/01/09 09:22:50;;;;;;;;;0.00;0.00;;;;;6.49;76.69;100182.91;5011959;28;45510;-73
2022/01/09 09:25:16;;;;;;;;;1.00;0.25;;;;;6.51;77.10;100188.16;5011679;28;45380;-73
2022/01/09 09:27:42;;;;;;;;;1.00;1.00;;;;;6.58;77.72;100195.00;5013130;28;45391;-71
2022/01/09 09:30:10;;;;;;;;;4.25;0.75;;;;;6.58;77.79;100190.53;5016282;28;45466;-75
2022/01/09 09:32:35;;;;;;;;;0.75;0.75;;;;;6.72;77.69;100204.19;5011615;28;46148;-74
2022/01/09 09:35:03;;;;;;;;;2.00;1.00;;;;;6.72;77.12;100185.53;5012230;28;45443;-69
2022/01/09 09:37:30;;;;;;;;;3.00;1.00;;;;;6.82;76.53;100192.25;5017901;28;46994;-71
2022/01/09 09:39:55;;;;;;;;;3.50;0.00;;;;;6.80;76.03;100185.25;5016834;28;45430;-71
2022/01/09 09:42:24;;;;;;;;;1.50;0.75;;;;;6.87;75.35;100177.88;5016750;28;45366;-70
2022/01/09 09:44:50;;;;;;;;;1.00;1.00;;;;;6.90;74.68;100162.63;5018392;28;45323;-77
2022/01/09 09:47:21;;;;;;;;;1.00;1.00;;;;;6.76;75.47;100144.53;5018453;28;45540;-77
2022/01/09 09:49:48;;;;;;;;;0.00;0.00;;;;;6.87;75.43;100159.22;5018814;28;45317;-79
2022/01/09 09:52:17;;;;;;;;;2.00;1.00;;;;;7.09;74.61;100202.72;5014372;28;45332;-78
2022/01/09 09:54:46;;;;;;;;;1.50;0.00;;;;;7.13;74.65;100217.69;5016141;28;45562;-77
2022/01/09 09:57:11;;;;;;;;;1.75;0.00;;;;;7.10;73.84;100209.81;5014212;28;46099;-74
2022/01/09 09:59:38;;;;;;;;;1.75;0.50;;;;;7.06;74.24;100217.03;5016558;28;45231;-74
2022/01/09 10:02:14;;;;;;;;;1.50;0.75;;;;;7.06;74.82;100214.38;5016828;28;45537;-72
2022/01/09 10:05:01;;;;;;;;;1.00;0.00;;;;;7.06;74.73;100210.88;5016843;28;45525;-75
2022/01/09 10:07:28;;;;;;;;;1.75;0.00;;;;;7.11;73.21;100207.09;5015307;28;47189;-75
2022/01/09 10:09:58;;;;;;;;;0.75;0.00;;;;;7.13;73.09;100225.69;5017258;28;45240;-73
2022/01/09 10:12:29;;;;;;;;;1.50;0.00;;;;;7.15;73.59;100211.34;5018042;28;45486;-74
2022/01/09 10:14:58;;;;;;;;;0.50;0.50;;;;;7.13;73.13;100197.22;5029742;28;45561;-74
2022/01/09 10:17:25;;;;;;;;;1.00;0.00;;;;;7.25;73.46;100198.50;5016905;28;46122;-76
2022/01/09 10:20:20;;;;;;;;;3.00;0.25;;;;;7.34;74.68;100206.13;5016348;28;45445;-72
2022/01/09 10:22:51;;;;;;;;;0.00;0.00;;;;;7.41;73.35;100204.06;5007728;28;45620;-73
2022/01/09 10:25:30;;;;;;;;;0.50;0.50;;;;;7.46;72.41;100215.44;5016422;28;45367;-73
2022/01/09 10:28:01;;;;;;;;;1.00;1.00;;;;;7.52;73.54;100208.03;5015965;28;45706;-74
2022/01/09 10:30:30;;;;;;;;;0.00;0.00;;;;;7.58;73.96;100218.44;5016331;28;45418;-75
2022/01/09 10:32:59;;;;;;;;;0.00;0.00;;;;;7.68;73.40;100226.06;5016776;28;45663;-73
2022/01/09 10:35:26;;;;;;;;;0.25;0.00;;;;;7.65;73.41;100234.22;5015903;28;45280;-72
2022/01/09 10:38:05;;;;;;;;;0.00;0.00;;;;;7.67;73.28;100227.88;5016291;28;45488;-71
2022/01/09 10:40:33;;;;;;;;;1.00;1.00;;;;;7.63;73.23;100226.28;5015790;28;45387;-72
2022/01/09 10:43:18;;;;;;;;;2.00;1.00;;;;;7.68;72.76;100234.94;5015808;28;45354;-76
2022/01/09 10:45:46;;;;;;;;;4.25;0.00;;;;;7.71;73.37;100226.81;5015947;28;45745;-73
2022/01/09 10:48:18;;;;;;;;;3.00;0.25;;;;;7.72;72.57;100222.34;5016168;28;45304;-70
2022/01/09 10:50:44;;;;;;;;;0.50;0.00;;;;;7.71;70.84;100223.28;5015989;28;45500;-72
2022/01/09 10:53:22;;;;;;;;;0.00;0.00;;;;;7.69;71.89;100235.81;5016260;28;45379;-73
2022/01/09 10:56:07;;;;;;;;;1.00;0.25;;;;;7.47;72.49;100214.50;5013054;28;45184;-68
2022/01/09 10:58:39;;;;;;;;;0.75;0.00;;;;;7.56;71.67;100239.00;5015432;28;47334;-73
2022/01/09 11:01:25;;;;;;;;;0.00;0.00;;;;;7.35;72.34;100231.88;5016314;28;45296;-72
2022/01/09 11:03:56;;;;;;;;;0.00;0.00;;;;;7.33;72.73;100249.72;5016005;28;45471;-69
2022/01/09 11:06:25;;;;;;;;;2.00;0.00;;;;;7.21;73.03;100228.91;5015477;28;45314;-71
2022/01/09 11:08:52;;;;;;;;;0.50;0.00;;;;;7.14;73.78;100243.41;5015394;28;46302;-73
2022/01/09 11:13:48;;;;;;;;;0.00;0.00;;;;;7.12;74.97;100256.81;5015680;28;45384;-73
2022/01/09 11:16:34;;;;;;;;;1.00;0.00;;;;;7.07;74.80;100261.44;5015694;28;45500;-72
2022/01/09 11:19:04;;;;;;;;;1.00;1.00;;;;;7.04;73.53;100240.25;5015827;28;46053;-72
2022/01/09 11:21:30;;;;;;;;;0.75;0.75;;;;;7.01;73.85;100240.34;5016233;28;45366;-69
2022/01/09 11:24:01;;;;;;;;;0.00;0.00;;;;;7.01;74.64;100251.00;5016312;28;45306;-74
2022/01/09 11:26:39;;;;;;;;;1.00;0.00;;;;;7.05;74.94;100249.97;5015719;28;47356;-72
2022/01/09 11:29:10;;;;;;;;;2.00;1.00;;;;;7.09;74.78;100258.72;5015624;28;45381;-73
2022/01/09 11:31:55;;;;;;;;;0.00;0.00;;;;;7.07;74.85;100245.44;5015659;28;45185;-73
2022/01/09 11:34:39;;;;;;;;;0.00;0.00;;;;;7.02;73.36;100246.56;5016107;28;45362;-76
2022/01/09 11:37:32;;;;;;;;;1.00;0.00;;;;;6.96;74.03;100246.81;5014505;28;45293;-73
2022/01/09 11:39:58;;;;;;;;;0.00;0.00;;;;;6.80;74.16;100212.75;5030495;28;47562;-77
2022/01/09 11:42:23;;;;;;;;;1.00;1.00;;;;;7.11;75.22;100254.19;5014872;28;45325;-74
2022/01/09 11:44:55;;;;;;;;;2.00;0.75;;;;;7.13;73.64;100242.56;5015354;28;45353;-80
2022/01/09 11:47:23;;;;;;;;;1.75;1.00;;;;;7.18;74.10;100250.34;5015102;28;45403;-75
2022/01/09 11:49:56;;;;;;;;;1.00;1.00;;;;;7.18;73.94;100247.69;5015451;28;45375;-72
2022/01/09 11:52:27;;;;;;;;;1.50;1.25;;;;;7.21;74.48;100253.78;5013915;28;45445;-73
2022/01/09 11:54:54;;;;;;;;;0.50;0.50;;;;;7.29;74.44;100268.59;5015430;28;45442;-73
2022/01/09 11:57:46;;;;;;;;;2.00;2.00;;;;;7.12;73.36;100251.47;5014991;28;45371;-73
2022/01/09 12:00:34;;;;;;;;;2.00;1.00;;;;;7.29;73.75;100281.91;5014416;28;45498;-70
2022/01/09 12:03:20;;;;;;;;;1.75;1.75;;;;;7.27;74.80;100275.78;5013146;28;45572;-74
2022/01/09 12:06:00;;;;;;;;;2.75;2.00;;;;;7.38;73.57;100286.88;5013514;28;45401;-75
2022/01/09 12:08:25;;;;;;;;;5.00;3.00;;;;;7.27;73.91;100273.09;5014658;28;46555;-76
2022/01/09 12:10:52;;;;;;;;;2.75;2.75;;;;;7.33;73.49;100287.06;5014934;28;45350;-75
2022/01/09 12:13:41;;;;;;;;;4.50;2.00;;;;;7.23;73.31;100273.22;5014767;28;45403;-73
2022/01/09 12:16:08;;;;;;;;;2.25;2.25;;;;;7.15;73.46;100259.31;5016210;28;45468;-81
2022/01/09 12:18:45;;;;;;;;;3.25;2.00;;;;;7.18;73.77;100269.00;5015136;28;45427;-77
2022/01/09 12:21:48;;;;;;;;;3.00;1.50;;;;;7.23;73.90;100259.03;5014145;28;45385;-76
2022/01/09 12:24:42;;;;;;;;;2.00;2.00;;;;;7.20;74.24;100259.16;5013546;28;45401;-75
2022/01/09 12:27:36;;;;;;;;;2.00;2.00;;;;;7.31;75.14;100275.59;5010196;28;45435;-76
2022/01/09 12:30:31;;;;;;;;;4.00;1.50;;;;;7.40;72.89;100258.38;5013541;28;45501;-76
2022/01/09 12:32:57;;;;;;;;;2.25;2.00;;;;;7.44;72.36;100247.50;5013314;28;45963;-75
2022/01/09 12:35:23;;;;;;;;;2.00;2.00;;;;;7.47;72.74;100246.50;5015109;28;45660;-77
2022/01/09 12:37:55;;;;;;;;;0.75;0.75;;;;;7.49;71.75;100224.16;5014033;28;45525;-77
2022/01/09 12:40:22;;;;;;;;;2.00;2.00;;;;;7.59;71.55;100227.31;5012673;28;45407;-75
2022/01/09 12:42:56;;;;;;;;;2.00;2.00;;;;;7.46;70.67;100221.66;5016450;28;46295;-74
2022/01/09 12:45:24;;;;;;;;;0.00;0.00;;;;;7.46;70.24;100236.78;5022268;28;45463;-75
2022/01/09 12:47:50;;;;;;;;;3.50;1.00;;;;;7.35;70.99;100228.34;5014024;28;45423;-77
2022/01/09 12:50:16;;;;;;;;;1.00;1.00;;;;;7.25;69.78;100232.31;5014356;28;45300;-76
2022/01/09 12:52:42;;;;;;;;;1.00;1.00;;;;;7.21;70.54;100250.25;5013752;28;45391;-77
2022/01/09 12:55:12;;;;;;;;;2.25;2.00;;;;;7.16;71.29;100245.06;5015321;28;45732;-77
2022/01/09 12:57:50;;;;;;;;;1.00;1.00;;;;;7.18;70.68;100245.00;5015040;28;45376;-75
2022/01/09 13:00:16;;;;;;;;;1.00;1.00;;;;;7.18;71.59;100240.56;5014081;28;45581;-76
2022/01/09 13:02:51;;;;;;;;;2.00;1.00;;;;;7.18;71.15;100251.22;5015096;28;46459;-76
2022/01/09 13:05:24;;;;;;;;;3.75;3.75;;;;;7.14;71.98;100252.28;5017448;28;45329;-77
2022/01/09 13:07:57;;;;;;;;;4.25;2.25;;;;;7.12;72.11;100243.47;5017575;28;45435;-75
2022/01/09 13:10:33;;;;;;;;;3.75;3.75;;;;;7.02;73.09;100204.78;5017314;28;45295;-77
2022/01/09 13:13:11;;;;;;;;;4.00;4.00;;;;;7.13;72.97;100231.88;5017464;28;45654;-73
2022/01/09 13:15:39;;;;;;;;;5.00;5.00;;;;;7.05;72.39;100235.78;5017478;28;45319;-70
2022/01/09 13:18:05;;;;;;;;;3.00;3.00;;;;;7.06;72.92;100238.38;5017522;28;45418;-70
2022/01/09 13:20:32;;;;;;;;;4.75;3.00;;;;;7.16;72.81;100237.06;5015970;28;45355;-71
2022/01/09 13:23:09;;;;;;;;;2.25;2.25;;;;;7.22;72.67;100230.66;5017057;28;46304;-69
2022/01/09 13:25:44;;;;;;;;;2.00;2.00;;;;;7.19;70.60;100228.97;5017415;28;45388;-70
2022/01/09 13:28:20;;;;;;;;;9.00;3.25;;;;;7.18;70.93;100223.69;5017300;28;45303;-69
2022/01/09 13:30:47;;;;;;;;;7.25;3.00;;;;;7.23;71.68;100219.03;5017313;28;45330;-72
2022/01/09 13:33:13;;;;;;;;;5.25;3.75;;;;;7.22;71.00;100222.66;5016352;28;46152;-71
2022/01/09 13:35:39;;;;;;;;;3.00;3.00;;;;;7.34;72.11;100234.59;5017359;28;45505;-75
2022/01/09 13:38:05;;;;;;;;;2.00;2.00;;;;;7.41;72.45;100220.06;5016408;28;45585;-75
2022/01/09 13:40:30;;;;;;;;;3.00;3.00;;;;;7.53;71.85;100220.44;5017412;28;45327;-74
2022/01/09 13:42:58;;;;;;;;;3.00;3.00;;;;;7.66;71.71;100219.91;5016342;28;45378;-76
2022/01/09 13:45:25;;;;;;;;;3.75;2.25;;;;;7.50;68.81;100193.03;5016833;28;45537;-76
2022/01/09 13:47:57;;;;;;;;;7.00;3.50;;;;;7.52;69.53;100224.03;5016209;28;45509;-74
2022/01/09 13:50:25;;;;;;;;;8.75;3.50;;;;;7.52;70.00;100225.84;5017592;28;45406;-71
2022/01/09 13:52:52;;;;;;;;;6.50;2.00;;;;;7.37;69.01;100214.03;5016783;28;46232;-74
2022/01/09 13:55:23;;;;;;;;;6.00;2.00;;;;;7.55;69.97;100223.06;5032475;28;45251;-74
2022/01/09 13:58:01;;;;;;;;;2.00;2.00;;;;;7.39;70.53;100187.28;5004331;28;45320;-72
2022/01/09 14:00:28;;;;;;;;;3.50;3.50;;;;;7.60;69.51;100219.25;5016941;28;45410;-74
2022/01/09 14:02:57;;;;;;;;;1.50;1.50;;;;;7.64;68.81;100219.13;5016789;28;46260;-74
2022/01/09 14:05:24;;;;;;;;;3.00;3.00;;;;;7.81;69.74;100237.97;5016605;28;45418;-74
2022/01/09 14:07:55;;;;;;;;;4.00;3.50;;;;;7.85;69.92;100237.75;5016422;28;45320;-74
2022/01/09 14:10:30;;;;;;;;;3.00;3.00;;;;;7.93;69.74;100242.75;5016710;28;45355;-73
2022/01/09 14:12:56;;;;;;;;;4.00;4.00;;;;;7.98;69.86;100244.31;5017379;28;46266;-73
2022/01/09 14:15:22;;;;;;;;;4.00;4.00;;;;;8.13;69.08;100248.13;5014840;28;45307;-74
2022/01/09 14:17:50;;;;;;;;;7.25;4.75;;;;;8.20;69.76;100254.91;5016487;28;45382;-76
2022/01/09 14:20:30;;;;;;;;;8.50;7.00;;;;;8.29;68.73;100256.31;5016237;28;45540;-74
2022/01/09 14:23:09;;;;;;;;;7.00;5.00;;;;;8.24;69.22;100248.53;5016192;28;45327;-76
2022/01/09 14:25:44;;;;;;;;;5.75;2.75;;;;;8.25;68.05;100236.03;5016147;28;45822;-76
2022/01/09 14:28:11;;;;;;;;;6.50;5.25;;;;;8.35;68.91;100240.91;5016172;28;45256;-75
2022/01/09 14:30:42;;;;;;;;;8.25;5.25;;;;;8.51;69.15;100237.53;5016075;28;45949;-75
2022/01/09 14:33:09;;;;;;;;;12.50;8.50;;;;;8.64;68.02;100239.59;5015688;28;45547;-75
2022/01/09 14:35:42;;;;;;;;;7.50;7.00;;;;;8.88;68.23;100253.63;5016343;28;45375;-73
2022/01/09 14:38:14;;;;;;;;;15.50;8.75;;;;;9.00;67.06;100262.91;5014516;28;45612;-76
2022/01/09 14:40:49;;;;;;;;;6.25;3.25;;;;;8.96;65.72;100262.16;5015089;28;45545;-76
2022/01/09 14:43:15;;;;;;;;;6.00;6.00;;;;;8.86;66.36;100268.00;5004857;28;46582;-76
2022/01/09 14:45:40;;;;;;;;;5.25;3.00;;;;;8.80;66.78;100260.28;5028871;28;45306;-76
2022/01/09 14:48:07;;;;;;;;;3.75;3.75;;;;;8.83;66.52;100266.34;5016140;28;45291;-75
2022/01/09 14:50:32;;;;;;;;;6.50;6.50;;;;;8.76;66.77;100269.38;5016008;28;45333;-74
2022/01/09 14:52:57;;;;;;;;;8.50;7.00;;;;;8.57;66.70;100258.66;5015806;28;46102;-75
2022/01/09 14:55:23;;;;;;;;;6.75;4.25;;;;;8.55;68.27;100271.22;5015683;28;45346;-74
2022/01/09 14:57:48;;;;;;;;;3.00;2.00;;;;;8.51;67.83;100281.16;5013270;28;45559;-72
2022/01/09 15:00:14;;;;;;;;;4.00;4.00;;;;;8.38;68.65;100261.28;5014511;28;45457;-75
2022/01/09 15:02:40;;;;;;;;;4.00;4.00;;;;;8.35;69.00;100272.09;5015688;28;45584;-71
2022/01/09 15:05:05;;;;;;;;;4.25;4.25;;;;;8.33;69.29;100271.31;5015771;28;45303;-73
2022/01/09 15:07:32;;;;;;;;;7.25;5.25;;;;;8.31;68.78;100267.84;5015206;28;45272;-75
2022/01/09 15:09:58;;;;;;;;;7.00;6.00;;;;;8.18;69.67;100263.94;5013819;28;45604;-73
2022/01/09 15:12:23;;;;;;;;;7.00;7.00;;;;;8.22;69.86;100270.88;5030539;28;46857;-73
2022/01/09 15:14:53;;;;;;;;;6.50;6.50;;;;;8.29;69.84;100272.34;5015822;28;45308;-74
2022/01/09 15:17:18;;;;;;;;;4.00;4.00;;;;;8.26;70.25;100273.34;5015736;28;45370;-74
2022/01/09 15:19:44;;;;;;;;;5.25;4.75;;;;;8.26;70.04;100270.66;5015325;28;45467;-73
2022/01/09 15:22:10;;;;;;;;;8.25;4.75;;;;;8.18;70.24;100255.91;5015261;28;46224;-74
2022/01/09 15:24:35;;;;;;;;;6.25;4.00;;;;;8.25;70.33;100276.09;5015174;28;45355;-72
2022/01/09 15:27:00;;;;;;;;;5.25;5.25;;;;;8.27;69.78;100279.53;5014061;28;45750;-74
2022/01/09 15:29:26;;;;;;;;;7.75;5.25;;;;;8.24;69.52;100272.56;5014546;28;45387;-75
2022/01/09 15:31:51;;;;;;;;;6.50;3.00;;;;;8.20;69.13;100281.63;5013723;28;45261;-74
2022/01/09 15:34:17;;;;;;;;;6.00;3.00;;;;;8.09;69.85;100258.97;5015252;28;45361;-75
2022/01/09 15:36:42;;;;;;;;;8.00;5.00;;;;;8.24;69.34;100287.72;5015585;28;45319;-75
2022/01/09 15:39:08;;;;;;;;;4.25;4.00;;;;;8.19;69.05;100277.22;5014823;28;45402;-72
2022/01/09 15:41:34;;;;;;;;;7.25;5.50;;;;;8.12;69.47;100269.53;5015412;28;45370;-72
2022/01/09 15:43:59;;;;;;;;;5.25;4.00;;;;;8.11;68.73;100279.34;5014334;28;45628;-73
2022/01/09 15:46:25;;;;;;;;;5.25;3.75;;;;;8.07;69.56;100279.56;5026955;28;45312;-74
2022/01/09 15:48:51;;;;;;;;;4.50;2.75;;;;;8.01;68.53;100271.78;5030179;28;45472;-74
2022/01/09 15:51:20;;;;;;;;;3.00;3.00;;;;;8.07;68.95;100291.09;5002019;28;46167;-73
2022/01/09 15:53:46;;;;;;;;;3.00;3.00;;;;;8.06;69.13;100294.72;5014625;28;45491;-75
2022/01/09 15:56:12;;;;;;;;;3.00;3.00;;;;;8.09;69.03;100291.00;5014657;28;45286;-70
2022/01/09 15:58:38;;;;;;;;;6.50;3.00;;;;;8.10;69.07;100293.63;5014634;28;45244;-72
2022/01/09 16:01:05;;;;;;;;;7.50;6.50;;;;;8.11;69.12;100299.84;5014780;28;45410;-74
2022/01/09 16:03:30;;;;;;;;;7.25;3.00;;;;;8.02;68.77;100292.22;5029821;28;45387;-72
2022/01/09 16:05:55;;;;;;;;;5.75;4.00;;;;;8.05;69.01;100303.66;5014891;28;45386;-75
2022/01/09 16:08:21;;;;;;;;;5.75;3.00;;;;;7.90;69.13;100282.94;5014530;28;45473;-74
2022/01/09 16:10:46;;;;;;;;;6.00;6.00;;;;;7.92;69.83;100311.28;5013223;28;47181;-75
2022/01/09 16:13:12;;;;;;;;;4.25;3.00;;;;;7.94;69.83;100301.44;5014524;28;45370;-74
2022/01/09 16:15:37;;;;;;;;;2.00;2.00;;;;;7.93;69.00;100307.69;5014879;28;45332;-75
2022/01/09 16:18:03;;;;;;;;;6.00;2.00;;;;;7.87;69.84;100309.75;5014485;28;45386;-75
2022/01/09 16:20:28;;;;;;;;;5.50;4.00;;;;;7.90;70.03;100320.31;5014404;28;45298;-73
2022/01/09 16:22:53;;;;;;;;;7.50;5.25;;;;;7.81;69.59;100315.34;5014451;28;45369;-74
2022/01/09 16:25:19;;;;;;;;;7.00;6.00;;;;;7.77;70.40;100324.41;5014672;28;46628;-72
2022/01/09 16:27:44;;;;;;;;;9.00;4.00;;;;;7.74;70.56;100324.56;5014011;28;45390;-73
2022/01/09 16:30:10;;;;;;;;;3.00;3.00;;;;;7.62;70.33;100314.38;5014450;28;45407;-75
2022/01/09 16:32:37;;;;;;;;;8.50;7.00;;;;;7.69;70.69;100321.19;5014107;28;45338;-73
2022/01/09 16:35:05;;;;;;;;;7.25;4.50;;;;;7.60;70.85;100303.75;5013961;28;45574;-74
2022/01/09 16:37:30;;;;;;;;;7.00;4.00;;;;;7.59;71.10;100307.34;5012954;28;45381;-74
2022/01/09 16:39:56;;;;;;;;;7.00;7.00;;;;;7.53;71.08;100296.94;5013380;28;45550;-74
2022/01/09 16:42:22;;;;;;;;;24.25;19.25;;;;;7.68;70.72;100330.13;5014152;28;45324;-73
2022/01/09 16:44:48;;;;;;;;;35.50;25.50;;;;;7.59;71.21;100313.56;5014290;28;45443;-74